createdAt,value
2018-06-20T00:00:34.372Z,1008.18
2018-06-20T00:01:34.369Z,1008.14
2018-06-20T00:02:34.370Z,1008.18
2018-06-20T00:03:34.360Z,1008.13
2018-06-20T00:04:34.363Z,1008.11
2018-06-20T00:05:34.353Z,1008.13
2018-06-20T00:06:34.348Z,1008.12
2018-06-20T00:07:34.349Z,1008.08
2018-06-20T00:08:34.341Z,1008.05
2018-06-20T00:09:34.340Z,1008.04
2018-06-20T00:10:34.332Z,1008.04
2018-06-20T00:11:34.328Z,1008.06
2018-06-20T00:12:34.328Z,1008.02
2018-06-20T00:13:34.321Z,1008.05
2018-06-20T00:14:34.316Z,1008.01
2018-06-20T00:15:34.316Z,1008.02
2018-06-20T00:16:34.310Z,1008.00
2018-06-20T00:17:34.306Z,1007.98
2018-06-20T00:18:34.299Z,1007.97
2018-06-20T00:19:34.300Z,1007.99
2018-06-20T00:20:34.291Z,1007.98
2018-06-20T00:21:34.287Z,1008.02
2018-06-20T00:22:34.284Z,1007.98
2018-06-20T00:23:34.278Z,1007.99
2018-06-20T00:24:34.276Z,1007.96
2018-06-20T00:25:34.271Z,1007.97
2018-06-20T00:26:34.265Z,1007.94
2018-06-20T00:27:34.263Z,1008.00
2018-06-20T00:28:34.263Z,1007.98
2018-06-20T00:29:34.258Z,1008.01
2018-06-20T00:30:34.254Z,1007.98
2018-06-20T00:31:34.244Z,1008.00
2018-06-20T00:32:34.245Z,1007.94
2018-06-20T00:33:34.241Z,1007.92
2018-06-20T00:34:34.232Z,1007.92
2018-06-20T00:35:34.228Z,1007.93
2018-06-20T00:37:34.223Z,1007.92
2018-06-20T00:38:34.215Z,1007.91
2018-06-20T00:39:34.213Z,1007.89
2018-06-20T00:40:34.207Z,1007.90
2018-06-20T00:41:34.203Z,1007.91
2018-06-20T00:42:34.198Z,1007.89
2018-06-20T00:43:34.199Z,1007.89
2018-06-20T00:44:34.190Z,1007.89
2018-06-20T00:45:34.186Z,1007.92
2018-06-20T00:46:34.181Z,1007.91
2018-06-20T00:47:34.177Z,1007.89
2018-06-20T00:48:34.173Z,1007.89
2018-06-20T00:49:34.169Z,1007.89
2018-06-20T00:50:34.164Z,1007.86
2018-06-20T00:51:34.161Z,1007.87
2018-06-20T00:52:34.156Z,1007.86
2018-06-20T00:53:34.152Z,1007.86
2018-06-20T00:54:34.155Z,1007.83
2018-06-20T00:55:34.146Z,1007.86
2018-06-20T00:56:34.139Z,1007.84
2018-06-20T00:57:34.135Z,1007.87
2018-06-20T00:58:34.130Z,1007.88
2018-06-20T00:59:34.129Z,1007.84
2018-06-20T01:00:34.122Z,1007.81
2018-06-20T01:01:34.118Z,1007.82
2018-06-20T01:02:34.113Z,1007.82
2018-06-20T01:03:34.109Z,1007.80
2018-06-20T01:04:34.105Z,1007.80
2018-06-20T01:05:34.101Z,1007.82
2018-06-20T01:06:34.096Z,1007.80
2018-06-20T01:07:34.092Z,1007.78
2018-06-20T01:08:34.088Z,1007.78
2018-06-20T01:09:34.085Z,1007.79
2018-06-20T01:10:34.079Z,1007.78
2018-06-20T01:11:34.091Z,1007.78
2018-06-20T01:12:34.072Z,1007.77
2018-06-20T01:13:34.069Z,1007.76
2018-06-20T01:14:34.062Z,1007.75
2018-06-20T01:15:34.058Z,1007.73
2018-06-20T01:16:34.055Z,1007.77
2018-06-20T01:17:34.051Z,1007.73
2018-06-20T01:18:34.046Z,1007.73
2018-06-20T01:19:34.042Z,1007.74
2018-06-20T01:20:34.038Z,1007.76
2018-06-20T01:21:34.034Z,1007.71
2018-06-20T01:22:34.231Z,1007.72
2018-06-20T01:23:34.025Z,1007.73
2018-06-20T01:24:34.021Z,1007.74
2018-06-20T01:25:34.019Z,1007.74
2018-06-20T01:26:34.012Z,1007.75
2018-06-20T01:27:34.009Z,1007.74
2018-06-20T01:28:34.004Z,1007.71
2018-06-20T01:29:34.000Z,1007.72
2018-06-20T01:30:33.996Z,1007.75
2018-06-20T01:31:33.991Z,1007.70
2018-06-20T01:32:33.992Z,1007.66
2018-06-20T01:33:33.989Z,1007.68
2018-06-20T01:34:33.981Z,1007.65
2018-06-20T01:35:33.974Z,1007.64
2018-06-20T01:36:33.971Z,1007.66
2018-06-20T01:37:33.967Z,1007.67
2018-06-20T01:38:33.962Z,1007.70
2018-06-20T01:39:33.959Z,1007.67
2018-06-20T01:40:33.955Z,1007.64
2018-06-20T01:41:33.951Z,1007.64
2018-06-20T01:42:33.945Z,1007.66
2018-06-20T01:43:33.945Z,1007.63
2018-06-20T01:44:33.938Z,1007.63
2018-06-20T01:45:33.937Z,1007.66
2018-06-20T01:46:33.929Z,1007.64
2018-06-20T01:47:33.925Z,1007.64
2018-06-20T01:48:33.925Z,1007.65
2018-06-20T01:49:33.918Z,1007.62
2018-06-20T01:50:33.912Z,1007.65
2018-06-20T01:51:33.909Z,1007.60
2018-06-20T01:52:33.904Z,1007.60
2018-06-20T01:53:33.901Z,1007.61
2018-06-20T01:54:33.896Z,1007.62
2018-06-20T01:55:33.951Z,1007.59
2018-06-20T01:56:33.889Z,1007.64
2018-06-20T01:57:33.885Z,1007.64
2018-06-20T01:58:33.880Z,1007.61
2018-06-20T01:59:33.875Z,1007.60
2018-06-20T02:00:33.871Z,1007.59
2018-06-20T02:01:33.870Z,1007.58
2018-06-20T02:02:33.863Z,1007.58
2018-06-20T02:03:33.859Z,1007.59
2018-06-20T02:04:33.855Z,1007.57
2018-06-20T02:05:33.852Z,1007.53
2018-06-20T02:06:33.847Z,1007.55
2018-06-20T02:07:33.843Z,1007.54
2018-06-20T02:08:33.842Z,1007.54
2018-06-20T02:09:33.834Z,1007.55
2018-06-20T02:10:33.830Z,1007.50
2018-06-20T02:11:33.829Z,1007.49
2018-06-20T02:12:33.822Z,1007.47
2018-06-20T02:13:33.819Z,1007.46
2018-06-20T02:14:33.814Z,1007.47
2018-06-20T02:15:33.809Z,1007.47
2018-06-20T02:16:33.805Z,1007.47
2018-06-20T02:17:33.801Z,1007.47
2018-06-20T02:18:33.797Z,1007.49
2018-06-20T02:19:33.792Z,1007.47
2018-06-20T02:20:33.793Z,1007.47
2018-06-20T02:21:33.789Z,1007.51
2018-06-20T02:22:33.779Z,1007.46
2018-06-20T02:23:33.775Z,1007.45
2018-06-20T02:24:33.773Z,1007.48
2018-06-20T02:25:33.770Z,1007.47
2018-06-20T02:26:33.763Z,1007.45
2018-06-20T02:27:33.759Z,1007.45
2018-06-20T02:28:33.755Z,1007.45
2018-06-20T02:29:33.751Z,1007.40
2018-06-20T02:30:33.948Z,1007.41
2018-06-20T02:31:33.745Z,1007.43
2018-06-20T02:32:33.738Z,1007.37
2018-06-20T02:33:33.744Z,1007.38
2018-06-20T02:34:33.731Z,1007.32
2018-06-20T02:35:33.725Z,1007.33
2018-06-20T02:36:33.745Z,1007.35
2018-06-20T02:37:33.718Z,1007.33
2018-06-20T02:38:33.712Z,1007.34
2018-06-20T02:39:33.708Z,1007.37
2018-06-20T02:40:33.907Z,1007.35
2018-06-20T02:41:33.700Z,1007.32
2018-06-20T02:42:33.696Z,1007.35
2018-06-20T02:43:33.691Z,1007.34
2018-06-20T02:44:33.692Z,1007.32
2018-06-20T02:45:33.684Z,1007.35
2018-06-20T02:46:33.680Z,1007.30
2018-06-20T02:47:33.674Z,1007.31
2018-06-20T02:48:33.671Z,1007.33
2018-06-20T02:49:33.666Z,1007.32
2018-06-20T02:50:33.661Z,1007.31
2018-06-20T02:51:33.657Z,1007.27
2018-06-20T02:52:33.657Z,1007.30
2018-06-20T02:53:33.649Z,1007.27
2018-06-20T02:54:33.644Z,1007.26
2018-06-20T02:55:33.640Z,1007.26
2018-06-20T02:56:33.636Z,1007.25
2018-06-20T02:57:33.632Z,1007.23
2018-06-20T02:58:33.628Z,1007.26
2018-06-20T02:59:33.625Z,1007.28
2018-06-20T03:00:33.620Z,1007.26
2018-06-20T03:01:33.615Z,1007.27
2018-06-20T03:02:33.610Z,1007.24
2018-06-20T03:03:33.611Z,1007.27
2018-06-20T03:04:33.602Z,1007.27
2018-06-20T03:05:33.597Z,1007.26
2018-06-20T03:06:33.593Z,1007.24
2018-06-20T03:07:33.589Z,1007.23
2018-06-20T03:08:33.584Z,1007.24
2018-06-20T03:09:33.580Z,1007.22
2018-06-20T03:10:33.576Z,1007.19
2018-06-20T03:11:33.571Z,1007.19
2018-06-20T03:12:33.568Z,1007.17
2018-06-20T03:13:33.563Z,1007.17
2018-06-20T03:14:33.558Z,1007.16
2018-06-20T03:15:33.555Z,1007.15
2018-06-20T03:16:33.550Z,1007.15
2018-06-20T03:17:33.546Z,1007.17
2018-06-20T03:18:33.543Z,1007.16
2018-06-20T03:19:33.541Z,1007.15
2018-06-20T03:20:33.537Z,1007.11
2018-06-20T03:21:33.529Z,1007.11
2018-06-20T03:22:33.528Z,1007.09
2018-06-20T03:23:33.524Z,1007.09
2018-06-20T03:24:33.514Z,1007.10
2018-06-20T03:25:33.511Z,1007.08
2018-06-20T03:26:33.508Z,1007.10
2018-06-20T03:27:33.502Z,1007.11
2018-06-20T03:28:33.497Z,1007.08
2018-06-20T03:29:33.493Z,1007.07
2018-06-20T03:30:33.488Z,1007.09
2018-06-20T03:31:33.486Z,1007.09
2018-06-20T03:32:33.479Z,1007.08
2018-06-20T03:33:33.479Z,1007.08
2018-06-20T03:34:33.470Z,1007.10
2018-06-20T03:35:33.470Z,1007.11
2018-06-20T03:36:33.466Z,1007.07
2018-06-20T03:37:33.458Z,1007.08
2018-06-20T03:38:33.454Z,1007.09
2018-06-20T03:39:33.449Z,1007.09
2018-06-20T03:40:33.444Z,1007.09
2018-06-20T03:41:33.442Z,1007.05
2018-06-20T03:42:33.435Z,1007.08
2018-06-20T03:43:33.432Z,1007.07
2018-06-20T03:44:33.426Z,1007.03
2018-06-20T03:45:33.425Z,1007.07
2018-06-20T03:46:33.420Z,1007.07
2018-06-20T03:47:33.413Z,1007.03
2018-06-20T03:48:33.417Z,1007.02
2018-06-20T03:49:33.404Z,1007.03
2018-06-20T03:50:33.404Z,1007.02
2018-06-20T03:51:33.400Z,1007.03
2018-06-20T03:52:33.391Z,1007.03
2018-06-20T03:53:33.388Z,1007.01
2018-06-20T03:54:33.388Z,1007.02
2018-06-20T03:55:33.380Z,1007.00
2018-06-20T03:56:33.374Z,1007.01
2018-06-20T03:57:33.370Z,1006.99
2018-06-20T03:58:33.366Z,1006.98
2018-06-20T03:59:33.360Z,1006.95
2018-06-20T04:00:33.361Z,1006.98
2018-06-20T04:01:33.353Z,1006.95
2018-06-20T04:02:33.352Z,1006.96
2018-06-20T04:03:33.347Z,1006.94
2018-06-20T04:04:33.342Z,1006.97
2018-06-20T04:05:33.339Z,1006.93
2018-06-20T04:06:33.332Z,1006.96
2018-06-20T04:07:33.327Z,1006.93
2018-06-20T04:08:33.331Z,1006.90
2018-06-20T04:09:33.322Z,1006.91
2018-06-20T04:10:33.314Z,1006.92
2018-06-20T04:11:33.313Z,1006.88
2018-06-20T04:12:33.306Z,1006.90
2018-06-20T04:13:33.302Z,1006.93
2018-06-20T04:14:33.299Z,1006.91
2018-06-20T04:15:33.301Z,1006.90
2018-06-20T04:16:33.290Z,1006.91
2018-06-20T04:17:33.287Z,1006.87
2018-06-20T04:18:33.284Z,1006.88
2018-06-20T04:19:33.276Z,1006.87
2018-06-20T04:20:33.273Z,1006.89
2018-06-20T04:21:33.273Z,1006.93
2018-06-20T04:22:33.267Z,1006.87
2018-06-20T04:23:33.264Z,1006.87
2018-06-20T04:24:33.256Z,1006.86
2018-06-20T04:25:33.253Z,1006.88
2018-06-20T04:26:33.250Z,1006.86
2018-06-20T04:27:33.245Z,1006.86
2018-06-20T04:28:33.239Z,1006.85
2018-06-20T04:29:33.237Z,1006.83
2018-06-20T04:30:33.234Z,1006.86
2018-06-20T04:31:33.229Z,1006.85
2018-06-20T04:32:33.224Z,1006.84
2018-06-20T04:33:33.218Z,1006.87
2018-06-20T04:34:33.239Z,1006.87
2018-06-20T04:35:33.212Z,1006.87
2018-06-20T04:36:33.205Z,1006.81
2018-06-20T04:37:33.204Z,1006.85
2018-06-20T04:38:33.196Z,1006.83
2018-06-20T04:39:33.196Z,1006.82
2018-06-20T04:40:33.188Z,1006.83
2018-06-20T04:41:33.387Z,1006.84
2018-06-20T04:42:33.179Z,1006.85
2018-06-20T04:43:33.177Z,1006.85
2018-06-20T04:44:33.213Z,1006.86
2018-06-20T04:45:33.170Z,1006.86
2018-06-20T04:46:33.167Z,1006.87
2018-06-20T04:47:33.159Z,1006.86
2018-06-20T04:48:33.155Z,1006.82
2018-06-20T04:49:33.150Z,1006.85
2018-06-20T04:50:33.146Z,1006.84
2018-06-20T04:51:33.142Z,1006.81
2018-06-20T04:52:33.139Z,1006.83
2018-06-20T04:53:33.135Z,1006.82
2018-06-20T04:54:33.133Z,1006.84
2018-06-20T04:55:33.136Z,1006.83
2018-06-20T04:56:33.121Z,1006.84
2018-06-20T04:57:33.117Z,1006.83
2018-06-20T04:58:33.116Z,1006.81
2018-06-20T04:59:33.108Z,1006.81
2018-06-20T05:00:33.106Z,1006.82
2018-06-20T05:01:33.100Z,1006.80
2018-06-20T05:02:33.099Z,1006.85
2018-06-20T05:03:33.097Z,1006.82
2018-06-20T05:04:33.089Z,1006.83
2018-06-20T05:05:33.092Z,1006.82
2018-06-20T05:06:33.080Z,1006.83
2018-06-20T05:07:33.078Z,1006.79
2018-06-20T05:08:33.076Z,1006.81
2018-06-20T05:09:33.067Z,1006.78
2018-06-20T05:10:33.066Z,1006.86
2018-06-20T05:11:33.062Z,1006.85
2018-06-20T05:12:33.054Z,1006.85
2018-06-20T05:13:33.049Z,1006.86
2018-06-20T05:14:33.044Z,1006.88
2018-06-20T05:15:33.041Z,1006.84
2018-06-20T05:16:33.037Z,1006.86
2018-06-20T05:17:33.033Z,1006.86
2018-06-20T05:18:33.027Z,1006.84
2018-06-20T05:19:33.236Z,1006.85
2018-06-20T05:20:33.023Z,1006.87
2018-06-20T05:21:33.018Z,1006.93
2018-06-20T05:22:33.041Z,1006.91
2018-06-20T05:23:33.007Z,1006.92
2018-06-20T05:24:33.008Z,1006.90
2018-06-20T05:25:33.002Z,1006.91
2018-06-20T05:26:32.998Z,1006.87
2018-06-20T05:27:32.989Z,1006.84
2018-06-20T05:28:32.985Z,1006.83
2018-06-20T05:29:32.986Z,1006.85
2018-06-20T05:30:32.976Z,1006.80
2018-06-20T05:31:32.972Z,1006.82
2018-06-20T05:32:32.969Z,1006.84
2018-06-20T05:33:32.971Z,1006.83
2018-06-20T05:34:32.967Z,1006.86
2018-06-20T05:35:32.961Z,1006.86
2018-06-20T05:36:32.957Z,1006.86
2018-06-20T05:37:32.956Z,1006.81
2018-06-20T05:38:32.945Z,1006.85
2018-06-20T05:39:32.944Z,1006.82
2018-06-20T05:40:32.939Z,1006.80
2018-06-20T05:41:32.932Z,1006.81
2018-06-20T05:42:32.931Z,1006.82
2018-06-20T05:43:32.925Z,1006.82
2018-06-20T05:44:32.919Z,1006.82
2018-06-20T05:46:32.910Z,1006.82
2018-06-20T05:47:33.108Z,1006.79
2018-06-20T05:48:32.906Z,1006.81
2018-06-20T05:49:32.898Z,1006.80
2018-06-20T05:50:32.897Z,1006.78
2018-06-20T05:51:32.895Z,1006.78
2018-06-20T05:52:32.896Z,1006.78
2018-06-20T05:53:32.887Z,1006.77
2018-06-20T05:54:32.883Z,1006.80
2018-06-20T05:55:32.872Z,1006.74
2018-06-20T05:56:32.869Z,1006.77
2018-06-20T05:57:32.868Z,1006.74
2018-06-20T05:58:32.863Z,1006.77
2018-06-20T05:59:32.857Z,1006.76
2018-06-20T06:00:32.852Z,1006.74
2018-06-20T06:01:32.855Z,1006.73
2018-06-20T06:02:32.856Z,1006.71
2018-06-20T06:03:32.843Z,1006.73
2018-06-20T06:04:32.842Z,1006.72
2018-06-20T06:05:32.832Z,1006.76
2018-06-20T06:06:32.828Z,1006.78
2018-06-20T06:07:32.831Z,1006.77
2018-06-20T06:08:32.819Z,1006.79
2018-06-20T06:09:32.822Z,1006.79
2018-06-20T06:10:32.811Z,1006.80
2018-06-20T06:11:32.808Z,1006.78
2018-06-20T06:12:32.804Z,1006.76
2018-06-20T06:13:33.007Z,1006.77
2018-06-20T06:14:32.796Z,1006.79
2018-06-20T06:15:32.792Z,1006.78
2018-06-20T06:16:32.788Z,1006.76
2018-06-20T06:17:32.785Z,1006.77
2018-06-20T06:18:32.780Z,1006.78
2018-06-20T06:19:32.777Z,1006.76
2018-06-20T06:20:32.773Z,1006.79
2018-06-20T06:21:32.769Z,1006.74
2018-06-20T06:22:32.764Z,1006.75
2018-06-20T06:23:32.769Z,1006.74
2018-06-20T06:24:32.760Z,1006.77
2018-06-20T06:25:32.762Z,1006.77
2018-06-20T06:26:32.749Z,1006.75
2018-06-20T06:27:32.747Z,1006.74
2018-06-20T06:28:32.748Z,1006.75
2018-06-20T06:29:32.739Z,1006.73
2018-06-20T06:30:32.746Z,1006.73
2018-06-20T06:31:32.731Z,1006.74
2018-06-20T06:32:32.729Z,1006.71
2018-06-20T06:33:32.728Z,1006.72
2018-06-20T06:34:32.719Z,1006.70
2018-06-20T06:35:32.721Z,1006.73
2018-06-20T06:36:32.715Z,1006.73
2018-06-20T06:37:32.709Z,1006.78
2018-06-20T06:38:32.709Z,1006.74
2018-06-20T06:39:32.704Z,1006.72
2018-06-20T06:40:32.912Z,1006.69
2018-06-20T06:41:32.701Z,1006.72
2018-06-20T06:42:32.691Z,1006.71
2018-06-20T06:43:32.689Z,1006.71
2018-06-20T06:44:32.687Z,1006.72
2018-06-20T06:45:32.687Z,1006.72
2018-06-20T06:46:32.678Z,1006.73
2018-06-20T06:47:32.675Z,1006.72
2018-06-20T06:48:32.678Z,1006.73
2018-06-20T06:49:32.679Z,1006.76
2018-06-20T06:50:32.668Z,1006.70
2018-06-20T06:51:32.663Z,1006.69
2018-06-20T06:52:32.659Z,1006.67
2018-06-20T06:53:32.656Z,1006.65
2018-06-20T06:54:32.655Z,1006.70
2018-06-20T06:55:32.651Z,1006.71
2018-06-20T06:56:32.647Z,1006.72
2018-06-20T06:57:32.644Z,1006.70
2018-06-20T06:58:32.641Z,1006.73
2018-06-20T06:59:32.638Z,1006.78
2018-06-20T07:00:32.641Z,1006.72
2018-06-20T07:01:32.636Z,1006.71
2018-06-20T07:02:32.633Z,1006.74
2018-06-20T07:03:32.634Z,1006.71
2018-06-20T07:04:32.626Z,1006.73
2018-06-20T07:05:32.629Z,1006.73
2018-06-20T07:06:32.621Z,1006.71
2018-06-20T07:07:32.619Z,1006.73
2018-06-20T07:08:32.617Z,1006.71
2018-06-20T07:09:32.620Z,1006.76
2018-06-20T07:10:32.612Z,1006.74
2018-06-20T07:11:32.611Z,1006.72
2018-06-20T07:12:32.610Z,1006.72
2018-06-20T07:13:32.609Z,1006.70
2018-06-20T07:14:32.608Z,1006.74
2018-06-20T07:15:32.677Z,1006.72
2018-06-20T07:16:32.605Z,1006.74
2018-06-20T07:17:32.606Z,1006.71
2018-06-20T07:18:32.608Z,1006.75
2018-06-20T07:19:32.611Z,1006.73
2018-06-20T07:20:32.607Z,1006.75
2018-06-20T07:21:32.602Z,1006.78
2018-06-20T07:22:32.601Z,1006.81
2018-06-20T07:23:32.805Z,1006.78
2018-06-20T07:24:32.624Z,1006.79
2018-06-20T07:25:32.606Z,1006.80
2018-06-20T07:26:32.601Z,1006.79
2018-06-20T07:27:32.604Z,1006.86
2018-06-20T07:28:32.602Z,1006.78
2018-06-20T07:29:32.604Z,1006.76
2018-06-20T07:30:32.603Z,1006.79
2018-06-20T07:31:32.608Z,1006.81
2018-06-20T07:32:32.609Z,1006.80
2018-06-20T07:33:32.608Z,1006.76
2018-06-20T07:34:32.625Z,1006.78
2018-06-20T07:35:32.697Z,1006.73
2018-06-20T07:36:32.631Z,1006.76
2018-06-20T07:37:32.616Z,1006.70
2018-06-20T07:38:32.621Z,1006.74
2018-06-20T07:39:32.628Z,1006.72
2018-06-20T07:40:32.625Z,1006.74
2018-06-20T07:41:32.633Z,1006.68
2018-06-20T07:42:32.631Z,1006.69
2018-06-20T07:43:32.641Z,1006.73
2018-06-20T07:44:32.640Z,1006.77
2018-06-20T07:45:32.646Z,1006.73
2018-06-20T07:46:32.651Z,1006.75
2018-06-20T07:47:32.657Z,1006.74
2018-06-20T07:48:32.663Z,1006.73
2018-06-20T07:49:32.675Z,1006.69
2018-06-20T07:50:32.673Z,1006.77
2018-06-20T07:51:32.682Z,1006.77
2018-06-20T07:52:32.685Z,1006.75
2018-06-20T07:53:32.688Z,1006.78
2018-06-20T07:54:32.693Z,1006.76
2018-06-20T07:55:32.702Z,1006.77
2018-06-20T07:56:32.708Z,1006.74
2018-06-20T07:57:32.919Z,1006.70
2018-06-20T07:58:32.716Z,1006.75
2018-06-20T07:59:32.724Z,1006.72
2018-06-20T08:00:32.733Z,1006.70
2018-06-20T08:01:32.739Z,1006.70
2018-06-20T08:02:32.748Z,1006.72
2018-06-20T08:03:32.752Z,1006.73
2018-06-20T08:04:32.762Z,1006.74
2018-06-20T08:05:32.776Z,1006.70
2018-06-20T08:06:32.775Z,1006.62
2018-06-20T08:07:32.782Z,1006.64
2018-06-20T08:08:32.799Z,1006.68
2018-06-20T08:09:33.007Z,1006.66
2018-06-20T08:10:33.004Z,1006.66
2018-06-20T08:11:33.011Z,1006.64
2018-06-20T08:12:32.879Z,1006.63
2018-06-20T08:13:32.828Z,1006.62
2018-06-20T08:14:32.827Z,1006.62
2018-06-20T08:15:32.845Z,1006.63
2018-06-20T08:16:32.842Z,1006.63
2018-06-20T08:17:32.849Z,1006.61
2018-06-20T08:18:32.858Z,1006.67
2018-06-20T08:19:33.068Z,1006.65
2018-06-20T08:20:32.876Z,1006.61
2018-06-20T08:21:32.884Z,1006.65
2018-06-20T08:22:32.889Z,1006.58
2018-06-20T08:23:32.899Z,1006.60
2018-06-20T08:24:32.908Z,1006.63
2018-06-20T08:26:32.932Z,1006.64
2018-06-20T08:27:32.939Z,1006.59
2018-06-20T08:28:32.947Z,1006.65
2018-06-20T08:29:32.959Z,1006.65
2018-06-20T08:30:32.967Z,1006.59
2018-06-20T08:31:32.978Z,1006.59
2018-06-20T08:32:32.988Z,1006.59
2018-06-20T08:33:33.000Z,1006.66
2018-06-20T08:34:33.009Z,1006.59
2018-06-20T08:35:33.035Z,1006.65
2018-06-20T08:36:33.033Z,1006.63
2018-06-20T08:37:33.044Z,1006.59
2018-06-20T08:38:33.055Z,1006.53
2018-06-20T08:40:33.087Z,1006.53
2018-06-20T08:41:33.094Z,1006.52
2018-06-20T08:42:33.153Z,1006.56
2018-06-20T08:43:33.118Z,1006.55
2018-06-20T08:44:33.135Z,1006.55
2018-06-20T08:45:33.144Z,1006.56
2018-06-20T08:46:33.156Z,1006.59
2018-06-20T08:47:33.171Z,1006.57
2018-06-20T08:48:33.186Z,1006.53
2018-06-20T08:49:33.196Z,1006.57
2018-06-20T08:50:33.215Z,1006.56
2018-06-20T08:51:33.224Z,1006.58
2018-06-20T08:52:33.441Z,1006.54
2018-06-20T08:53:33.254Z,1006.48
2018-06-20T08:54:33.265Z,1006.51
2018-06-20T08:55:33.278Z,1006.50
2018-06-20T08:56:33.292Z,1006.49
2018-06-20T08:57:33.305Z,1006.55
2018-06-20T08:58:33.317Z,1006.54
2018-06-20T08:59:33.331Z,1006.53
2018-06-20T09:00:33.344Z,1006.52
2018-06-20T09:01:33.356Z,1006.50
2018-06-20T09:02:33.373Z,1006.50
2018-06-20T09:03:33.382Z,1006.52
2018-06-20T09:04:33.602Z,1006.49
2018-06-20T09:05:33.410Z,1006.47
2018-06-20T09:06:33.423Z,1006.49
2018-06-20T09:07:33.441Z,1006.48
2018-06-20T09:08:33.478Z,1006.48
2018-06-20T09:09:33.465Z,1006.49
2018-06-20T09:10:33.486Z,1006.49
2018-06-20T09:11:33.493Z,1006.52
2018-06-20T09:12:33.507Z,1006.46
2018-06-20T09:13:33.521Z,1006.48
2018-06-20T09:14:33.537Z,1006.49
2018-06-20T09:15:33.751Z,1006.48
2018-06-20T09:16:33.563Z,1006.46
2018-06-20T09:17:33.582Z,1006.43
2018-06-20T09:18:33.591Z,1006.34
2018-06-20T09:19:33.610Z,1006.41
2018-06-20T09:20:33.622Z,1006.42
2018-06-20T09:21:33.635Z,1006.42
2018-06-20T09:22:33.649Z,1006.39
2018-06-20T09:23:33.669Z,1006.39
2018-06-20T09:24:33.680Z,1006.38
2018-06-20T09:25:33.692Z,1006.42
2018-06-20T09:26:33.710Z,1006.47
2018-06-20T09:27:33.719Z,1006.46
2018-06-20T09:28:33.736Z,1006.40
2018-06-20T09:29:33.749Z,1006.46
2018-06-20T09:30:33.759Z,1006.44
2018-06-20T09:31:33.773Z,1006.36
2018-06-20T09:32:33.788Z,1006.42
2018-06-20T09:33:33.800Z,1006.40
2018-06-20T09:34:33.816Z,1006.42
2018-06-20T09:35:34.026Z,1006.39
2018-06-20T09:36:33.836Z,1006.42
2018-06-20T09:37:34.051Z,1006.37
2018-06-20T09:38:33.908Z,1006.35
2018-06-20T09:39:33.914Z,1006.37
2018-06-20T09:40:33.886Z,1006.36
2018-06-20T09:41:33.897Z,1006.38
2018-06-20T09:42:34.109Z,1006.38
2018-06-20T09:43:33.921Z,1006.37
2018-06-20T09:44:33.933Z,1006.36
2018-06-20T09:45:33.944Z,1006.38
2018-06-20T09:46:33.954Z,1006.42
2018-06-20T09:48:34.181Z,1006.31
2018-06-20T09:49:33.996Z,1006.34
2018-06-20T09:50:34.005Z,1006.33
2018-06-20T09:51:34.018Z,1006.32
2018-06-20T09:52:34.030Z,1006.33
2018-06-20T09:53:34.044Z,1006.30
2018-06-20T09:54:34.066Z,1006.33
2018-06-20T09:55:34.070Z,1006.40
2018-06-20T09:56:34.087Z,1006.33
2018-06-20T09:57:34.105Z,1006.35
2018-06-20T09:58:34.114Z,1006.39
2018-06-20T09:59:34.128Z,1006.38
2018-06-20T10:00:34.158Z,1006.30
2018-06-20T10:01:34.248Z,1006.32
2018-06-20T10:02:34.174Z,1006.34
2018-06-20T10:03:34.192Z,1006.34
2018-06-20T10:04:34.212Z,1006.34
2018-06-20T10:05:34.222Z,1006.31
2018-06-20T10:06:34.385Z,1006.31
2018-06-20T10:07:34.258Z,1006.18
2018-06-20T10:08:34.269Z,1006.23
2018-06-20T10:09:34.281Z,1006.25
2018-06-20T10:10:34.294Z,1006.24
2018-06-20T10:11:34.309Z,1006.19
2018-06-20T10:12:34.322Z,1006.19
2018-06-20T10:13:34.333Z,1006.33
2018-06-20T10:14:34.349Z,1006.29
2018-06-20T10:15:34.357Z,1006.37
2018-06-20T10:16:34.372Z,1006.28
2018-06-20T10:17:34.388Z,1006.28
2018-06-20T10:18:34.394Z,1006.30
2018-06-20T10:19:34.411Z,1006.27
2018-06-20T10:20:34.424Z,1006.26
2018-06-20T10:21:34.436Z,1006.21
2018-06-20T10:22:34.449Z,1006.26
2018-06-20T10:23:34.463Z,1006.28
2018-06-20T10:24:34.481Z,1006.28
2018-06-20T10:25:34.699Z,1006.30
2018-06-20T10:26:34.507Z,1006.29
2018-06-20T10:27:34.526Z,1006.26
2018-06-20T10:28:34.580Z,1006.27
2018-06-20T10:29:34.553Z,1006.29
2018-06-20T10:30:34.565Z,1006.29
2018-06-20T10:31:34.580Z,1006.27
2018-06-20T10:32:34.597Z,1006.30
2018-06-20T10:33:34.616Z,1006.35
2018-06-20T10:34:34.627Z,1006.25
2018-06-20T10:35:34.642Z,1006.23
2018-06-20T10:36:34.657Z,1006.21
2018-06-20T10:37:34.675Z,1006.22
2018-06-20T10:38:34.694Z,1006.25
2018-06-20T10:39:34.704Z,1006.20
2018-06-20T10:40:34.722Z,1006.07
2018-06-20T10:41:34.736Z,1006.21
2018-06-20T10:42:34.754Z,1006.24
2018-06-20T10:43:34.766Z,1006.20
2018-06-20T10:44:34.786Z,1006.24
2018-06-20T10:45:34.797Z,1006.17
2018-06-20T10:46:34.813Z,1006.16
2018-06-20T10:47:34.831Z,1006.09
2018-06-20T10:48:34.849Z,1006.05
2018-06-20T10:49:34.871Z,1006.07
2018-06-20T10:50:34.878Z,1006.01
2018-06-20T10:51:34.891Z,1006.03
2018-06-20T10:52:34.911Z,1005.98
2018-06-20T10:53:34.924Z,1006.02
2018-06-20T10:54:34.940Z,1006.05
2018-06-20T10:55:34.969Z,1006.11
2018-06-20T10:56:34.975Z,1006.12
2018-06-20T10:57:35.192Z,1006.04
2018-06-20T10:58:35.208Z,1006.04
2018-06-20T10:59:35.027Z,1006.05
2018-06-20T11:00:35.040Z,1006.03
2018-06-20T11:01:35.055Z,1006.04
2018-06-20T11:02:35.075Z,1006.08
2018-06-20T11:03:35.090Z,1006.08
2018-06-20T11:04:35.104Z,1006.11
2018-06-20T11:05:35.127Z,1006.07
2018-06-20T11:06:35.139Z,1006.03
2018-06-20T11:07:35.155Z,1006.06
2018-06-20T11:08:35.168Z,1005.86
2018-06-20T11:09:35.203Z,1006.05
2018-06-20T11:10:35.199Z,1006.00
2018-06-20T11:11:35.214Z,1005.98
2018-06-20T11:12:35.232Z,1005.88
2018-06-20T11:13:35.252Z,1005.91
2018-06-20T11:14:35.262Z,1005.86
2018-06-20T11:15:35.278Z,1005.86
2018-06-20T11:16:35.495Z,1005.88
2018-06-20T11:17:35.310Z,1005.85
2018-06-20T11:18:35.324Z,1005.88
2018-06-20T11:19:35.341Z,1005.90
2018-06-20T11:20:35.357Z,1005.86
2018-06-20T11:21:35.373Z,1005.78
2018-06-20T11:22:35.393Z,1005.82
2018-06-20T11:23:35.409Z,1005.78
2018-06-20T11:24:35.420Z,1005.78
2018-06-20T11:25:35.437Z,1005.77
2018-06-20T11:26:35.455Z,1005.77
2018-06-20T11:27:35.472Z,1005.73
2018-06-20T11:28:35.484Z,1005.70
2018-06-20T11:29:35.505Z,1005.68
2018-06-20T11:30:35.518Z,1005.69
2018-06-20T11:31:35.938Z,1005.72
2018-06-20T11:32:35.556Z,1005.73
2018-06-20T11:33:35.569Z,1005.71
2018-06-20T11:34:35.581Z,1005.70
2018-06-20T11:35:35.597Z,1005.67
2018-06-20T11:36:35.614Z,1005.67
2018-06-20T11:37:35.630Z,1005.63
2018-06-20T11:38:35.645Z,1005.67
2018-06-20T11:39:35.683Z,1005.57
2018-06-20T11:40:35.679Z,1005.52
2018-06-20T11:41:35.695Z,1005.51
2018-06-20T11:42:35.715Z,1005.51
2018-06-20T11:43:35.728Z,1005.49
2018-06-20T11:44:35.744Z,1005.47
2018-06-20T11:45:35.762Z,1005.46
2018-06-20T11:46:35.776Z,1005.44
2018-06-20T11:47:35.792Z,1005.37
2018-06-20T11:48:35.809Z,1005.39
2018-06-20T11:49:35.825Z,1005.40
2018-06-20T11:50:35.841Z,1005.39
2018-06-20T11:51:35.857Z,1005.37
2018-06-20T11:52:35.881Z,1005.40
2018-06-20T11:53:35.891Z,1005.36
2018-06-20T11:54:35.906Z,1005.41
2018-06-20T11:55:35.926Z,1005.33
2018-06-20T11:56:35.939Z,1005.31
2018-06-20T11:57:35.955Z,1005.30
2018-06-20T11:58:36.173Z,1005.35
2018-06-20T11:59:35.987Z,1005.36
2018-06-20T12:00:36.004Z,1005.30
2018-06-20T12:01:36.020Z,1005.30
2018-06-20T12:02:36.034Z,1005.25
2018-06-20T12:03:36.050Z,1005.28
2018-06-20T12:04:36.072Z,1005.28
2018-06-20T12:05:36.089Z,1005.31
2018-06-20T12:06:36.101Z,1005.24
2018-06-20T12:07:36.115Z,1005.25
2018-06-20T12:08:36.131Z,1005.24
2018-06-20T12:09:36.148Z,1005.25
2018-06-20T12:10:36.163Z,1005.18